Time;durP1;ratioP1;P1;durP2;ratioP2;P2;SDS_P1;SDS_P2;PMS_P1;PMS_P2;Temp;Humidity;BMP_temperature;BMP_pressure;BME280_temperature;BME280_humidity;BME280_pressure;Samples;Min_cycle;Max_cycle;Signal;HPM_P1;HPM_P2
2021/09/28 00:00:27;;;;;;;1.63;0.60;;;;;;;10.34;72.17;100486.28;5087498;28;20476;-78
2021/09/28 00:02:55;;;;;;;5.47;1.33;;;;;;;10.36;72.28;100493.06;5087621;28;20040;-78
2021/09/28 00:05:22;;;;;;;5.93;0.68;;;;;;;10.36;72.40;100486.72;5085856;28;20093;-79
2021/09/28 00:07:49;;;;;;;1.80;0.50;;;;;;;10.35;72.50;100487.91;5087541;28;20044;-78
2021/09/28 00:10:16;;;;;;;6.10;0.90;;;;;;;10.35;72.39;100490.66;5084528;28;20134;-79
2021/09/28 00:12:43;;;;;;;3.58;1.15;;;;;;;10.35;72.51;100494.22;5085683;28;20110;-79
2021/09/28 00:15:12;;;;;;;5.50;1.83;;;;;;;10.36;72.75;100490.31;5084224;28;20109;-79
2021/09/28 00:17:39;;;;;;;5.13;0.50;;;;;;;10.35;72.78;100485.13;5085926;28;20097;-78
2021/09/28 00:20:07;;;;;;;5.75;0.90;;;;;;;10.32;72.53;100494.94;5084506;28;20095;-79
2021/09/28 00:22:35;;;;;;;6.22;0.77;;;;;;;10.33;72.50;100482.69;5067407;28;20044;-79
2021/09/28 00:25:03;;;;;;;4.28;1.45;;;;;;;10.36;72.54;100490.31;5083181;28;20044;-79
2021/09/28 00:27:30;;;;;;;5.85;1.83;;;;;;;10.36;72.50;100486.72;5085707;28;20075;-79
2021/09/28 00:29:59;;;;;;;4.72;1.88;;;;;;;10.35;72.32;100508.03;5085388;28;20036;-79
2021/09/28 00:32:26;;;;;;;12.35;1.75;;;;;;;10.37;72.25;100516.00;5086284;28;20040;-79
2021/09/28 00:34:53;;;;;;;5.35;0.85;;;;;;;10.38;71.97;100507.34;5085803;28;20044;-79
2021/09/28 00:37:20;;;;;;;6.60;1.45;;;;;;;10.38;71.93;100501.81;5085957;28;20046;-79
2021/09/28 00:39:47;;;;;;;4.45;1.38;;;;;;;10.37;71.80;100516.81;5083793;28;20410;-78
2021/09/28 00:42:14;;;;;;;3.22;0.82;;;;;;;10.38;71.98;100517.59;5085004;28;20628;-78
2021/09/28 00:44:44;;;;;;;2.78;0.75;;;;;;;10.36;71.90;100520.75;5085411;28;20050;-79
2021/09/28 00:47:12;;;;;;;6.55;0.90;;;;;;;10.37;71.85;100504.94;5085015;28;20044;-79
2021/09/28 00:49:45;;;;;;;8.82;1.92;;;;;;;10.35;71.88;100518.34;5068472;28;20032;-79
2021/09/28 00:52:12;;;;;;;;;;;;;;;10.31;71.93;100515.44;5082676;28;20040;-79
2021/09/28 00:54:39;;;;;;;8.60;0.93;;;;;;;10.31;71.82;100517.41;5086098;28;20342;-79
2021/09/28 00:57:08;;;;;;;3.00;0.40;;;;;;;10.29;71.87;100520.53;5085208;28;20048;-79
2021/09/28 00:59:37;;;;;;;4.55;1.48;;;;;;;10.26;71.71;100515.69;5084062;28;20157;-79
2021/09/28 01:02:06;;;;;;;3.60;0.60;;;;;;;10.27;71.84;100511.75;5081275;28;20028;-79
2021/09/28 01:04:35;;;;;;;4.18;0.70;;;;;;;10.29;71.58;100503.94;5083332;28;20040;-80
2021/09/28 01:07:04;;;;;;;2.67;0.52;;;;;;;10.27;71.78;100508.97;5083445;28;20093;-78
2021/09/28 01:09:32;;;;;;;7.85;1.15;;;;;;;10.29;71.66;100503.94;5085046;28;20040;-79
2021/09/28 01:11:59;;;;;;;3.55;0.47;;;;;;;10.28;71.47;100507.84;5085832;28;20036;-79
2021/09/28 01:14:26;;;;;;;4.38;0.55;;;;;;;10.28;71.58;100513.38;5083721;28;20039;-79
2021/09/28 01:16:53;;;;;;;8.93;1.63;;;;;;;10.26;71.49;100498.28;5086112;28;20102;-78
2021/09/28 01:19:21;;;;;;;9.23;0.95;;;;;;;10.26;71.67;100504.63;5086280;28;20483;-79
2021/09/28 01:21:48;;;;;;;3.50;0.60;;;;;;;10.27;71.62;100506.22;5086837;28;20060;-79
2021/09/28 01:24:15;;;;;;;4.20;1.05;;;;;;;10.27;71.51;100514.50;5086298;28;20028;-79
2021/09/28 01:26:42;;;;;;;3.70;0.80;;;;;;;10.26;71.71;100504.63;5084702;28;20039;-79
2021/09/28 01:29:09;;;;;;;8.35;1.63;;;;;;;10.26;71.72;100507.38;5085267;28;20040;-79
2021/09/28 01:31:38;;;;;;;3.40;0.60;;;;;;;10.26;71.69;100504.63;5082685;28;20135;-79
2021/09/28 01:34:07;;;;;;;6.43;0.70;;;;;;;10.27;71.79;100500.69;5086264;28;20051;-79
2021/09/28 01:36:35;;;;;;;3.20;0.80;;;;;;;10.27;71.60;100508.97;5083547;28;20044;-79
2021/09/28 01:39:05;;;;;;;6.13;0.98;;;;;;;10.31;71.78;100511.88;5082700;28;20048;-79
2021/09/28 01:41:32;;;;;;;6.18;0.82;;;;;;;10.31;71.72;100496.09;5083964;28;20488;-79
2021/09/28 01:44:06;;;;;;;2.28;1.05;;;;;;;10.29;71.77;100498.41;5084918;28;20506;-79
2021/09/28 01:46:35;;;;;;;4.75;1.17;;;;;;;10.29;71.93;100492.06;5084869;28;20040;-79
2021/09/28 01:49:02;;;;;;;4.43;0.57;;;;;;;10.28;71.86;100488.47;5085319;28;20040;-79
2021/09/28 01:51:29;;;;;;;2.28;0.60;;;;;;;10.29;71.77;100487.31;5085757;28;22109;-79
2021/09/28 01:53:56;;;;;;;3.47;0.60;;;;;;;10.30;71.92;100491.69;5084661;28;20032;-79
2021/09/28 01:56:27;;;;;;;2.40;0.40;;;;;;;10.28;71.76;100484.91;5083918;28;20066;-79
2021/09/28 01:58:56;;;;;;;2.95;0.70;;;;;;;10.23;71.89;100488.72;5083362;28;20835;-79
2021/09/28 02:01:23;;;;;;;4.53;0.75;;;;;;;10.21;71.85;100485.50;5076209;28;20040;-79
2021/09/28 02:03:51;;;;;;;3.88;0.50;;;;;;;10.19;72.11;100482.25;5087679;28;20434;-79
2021/09/28 02:06:20;;;;;;;4.57;0.68;;;;;;;10.17;72.14;100467.97;5088652;28;20056;-79
2021/09/28 02:08:47;;;;;;;7.75;1.08;;;;;;;10.17;72.25;100472.69;5087830;28;20089;-78
2021/09/28 02:11:15;;;;;;;3.92;1.00;;;;;;;10.17;72.12;100479.03;5088189;28;20849;-78
2021/09/28 02:13:42;;;;;;;5.25;1.17;;;;;;;10.16;72.25;100477.44;5087633;28;21639;-79
2021/09/28 02:16:09;;;;;;;2.22;0.60;;;;;;;10.16;72.09;100462.81;5088874;28;20048;-79
2021/09/28 02:18:37;;;;;;;4.22;0.80;;;;;;;10.14;72.46;100468.66;5089898;28;20032;-79
2021/09/28 02:21:04;;;;;;;3.00;0.75;;;;;;;10.10;72.25;100464.97;5089222;28;20048;-79
2021/09/28 02:23:30;;;;;;;3.92;0.82;;;;;;;10.09;72.17;100466.09;5088901;28;20378;-79
2021/09/28 02:26:00;;;;;;;8.00;0.80;;;;;;;10.09;72.44;100470.84;5087944;28;20032;-79
2021/09/28 02:28:27;;;;;;;1.35;0.60;;;;;;;10.10;72.46;100475.22;5089223;28;20553;-79
2021/09/28 02:30:54;;;;;;;4.15;1.13;;;;;;;10.09;72.26;100466.09;5088012;28;20040;-79
2021/09/28 02:33:21;;;;;;;10.35;1.13;;;;;;;10.07;72.30;100462.91;5087893;28;20032;-79
2021/09/28 02:35:47;;;;;;;5.68;1.10;;;;;;;10.09;72.03;100468.06;5087469;28;20507;-79
2021/09/28 02:38:14;;;;;;;5.35;0.75;;;;;;;10.08;72.48;100459.00;5087022;28;20054;-78
2021/09/28 02:40:41;;;;;;;4.75;0.68;;;;;;;10.10;72.52;100472.47;5088071;28;20036;-79
2021/09/28 02:43:08;;;;;;;4.28;0.90;;;;;;;10.10;72.19;100467.72;5086649;28;20054;-79
2021/09/28 02:45:35;;;;;;;5.53;0.98;;;;;;;10.10;72.63;100467.72;5087972;28;20044;-79
2021/09/28 02:48:02;;;;;;;7.38;1.05;;;;;;;10.11;72.55;100468.53;5087583;28;20514;-79
2021/09/28 02:50:33;;;;;;;6.05;0.93;;;;;;;10.09;72.54;100460.56;5086263;28;20066;-79
2021/09/28 02:53:02;;;;;;;8.20;0.95;;;;;;;10.10;72.56;100456.66;5086519;28;20127;-79
2021/09/28 02:55:29;;;;;;;4.22;0.80;;;;;;;10.08;72.55;100453.47;5086444;28;20064;-79
2021/09/28 02:57:56;;;;;;;4.10;0.90;;;;;;;10.07;72.57;100451.03;5088693;28;20044;-79
2021/09/28 03:00:23;;;;;;;9.10;0.90;;;;;;;10.03;72.64;100453.69;5086842;28;20034;-78
2021/09/28 03:02:49;;;;;;;6.13;1.10;;;;;;;10.02;72.86;100452.06;5087014;28;20114;-79
2021/09/28 03:05:16;;;;;;;5.57;0.68;;;;;;;10.03;72.94;100453.69;5085556;28;20415;-79
2021/09/28 03:07:43;;;;;;;7.15;1.45;;;;;;;10.02;73.06;100443.78;5086518;28;20040;-79
2021/09/28 03:10:10;;;;;;;6.15;0.85;;;;;;;10.01;72.89;100438.56;5069555;28;20105;-79
2021/09/28 03:12:37;;;;;;;8.07;0.82;;;;;;;10.02;72.67;100441.00;5088039;28;20384;-79
2021/09/28 03:15:05;;;;;;;5.55;0.75;;;;;;;10.01;72.76;100442.16;5085379;28;20079;-79
2021/09/28 03:17:32;;;;;;;4.20;0.70;;;;;;;10.02;72.77;100435.47;5086698;28;20040;-79
2021/09/28 03:19:59;;;;;;;3.17;0.75;;;;;;;10.02;72.73;100440.19;5088386;28;20844;-78
2021/09/28 03:22:25;;;;;;;6.45;0.73;;;;;;;10.02;72.58;100452.06;5087229;28;20032;-79
2021/09/28 03:24:52;;;;;;;6.75;1.65;;;;;;;10.05;72.70;100447.81;5088340;28;20051;-79
2021/09/28 03:27:19;;;;;;;4.82;0.75;;;;;;;10.03;72.79;100426.03;5087610;28;20063;-79
2021/09/28 03:29:45;;;;;;;7.55;0.82;;;;;;;10.03;72.98;100428.81;5087506;28;20039;-79
2021/09/28 03:32:12;;;;;;;7.47;0.93;;;;;;;10.02;72.91;100429.94;5087826;28;20479;-79
2021/09/28 03:34:39;;;;;;;5.20;0.93;;;;;;;10.02;72.98;100427.19;5086681;28;20044;-79
2021/09/28 03:37:05;;;;;;;5.65;1.10;;;;;;;10.03;73.07;100423.28;5085318;28;20522;-79
2021/09/28 03:39:32;;;;;;;6.43;2.15;;;;;;;10.04;73.09;100429.59;5099771;28;20044;-79
2021/09/28 03:41:59;;;;;;;8.45;1.95;;;;;;;10.03;73.40;100423.28;5088383;28;20048;-79
2021/09/28 03:44:26;;;;;;;4.80;0.88;;;;;;;10.06;73.24;100417.03;5068565;28;20396;-79
2021/09/28 03:46:53;;;;;;;3.13;0.60;;;;;;;10.08;73.41;100420.25;5086335;28;20097;-79
2021/09/28 03:49:20;;;;;;;4.15;0.60;;;;;;;10.09;73.24;100421.84;5087515;28;20051;-79
2021/09/28 03:51:47;;;;;;;6.65;1.25;;;;;;;10.08;73.25;100423.03;5087580;28;20051;-79
2021/09/28 03:54:14;;;;;;;5.28;0.65;;;;;;;10.09;73.29;100416.31;5084863;28;20136;-79
2021/09/28 03:56:40;;;;;;;5.63;1.05;;;;;;;10.09;73.40;100405.25;5084399;28;20048;-79
2021/09/28 03:59:07;;;;;;;1.83;0.63;;;;;;;10.10;73.40;100406.88;5087985;28;20058;-79
2021/09/28 04:01:34;;;;;;;4.93;0.77;;;;;;;10.10;73.71;100401.34;5086244;28;20048;-78
2021/09/28 04:04:01;;;;;;;5.13;1.00;;;;;;;10.07;73.65;100402.03;5085722;28;20076;-79
2021/09/28 04:06:27;;;;;;;5.93;0.80;;;;;;;10.08;73.77;100402.84;5086562;28;20514;-79
2021/09/28 04:08:55;;;;;;;3.95;0.88;;;;;;;10.08;73.35;100408.38;5085057;28;20051;-80
2021/09/28 04:11:22;;;;;;;7.15;1.45;;;;;;;10.07;73.70;100407.56;5087711;28;20032;-79
2021/09/28 04:13:48;;;;;;;5.88;1.25;;;;;;;10.10;73.55;100406.88;5084721;28;20048;-79
2021/09/28 04:16:19;;;;;;;5.57;0.80;;;;;;;10.09;73.68;100405.25;5083795;28;20452;-79
2021/09/28 04:18:46;;;;;;;5.93;1.00;;;;;;;10.10;73.55;100404.13;5085881;28;20048;-79
2021/09/28 04:21:13;;;;;;;7.93;0.77;;;;;;;10.10;73.68;100393.06;5086387;28;20040;-79
2021/09/28 04:23:40;;;;;;;4.28;0.65;;;;;;;10.09;73.53;100388.66;5086203;28;20028;-79
2021/09/28 04:26:07;;;;;;;12.60;1.73;;;;;;;10.11;73.59;100389.13;5067622;28;20043;-78
2021/09/28 04:28:35;;;;;;;6.20;0.80;;;;;;;10.11;73.71;100400.19;5083872;28;20047;-79
2021/09/28 04:31:02;;;;;;;7.18;0.82;;;;;;;10.12;73.77;100390.75;5085361;28;20055;-79
2021/09/28 04:33:29;;;;;;;8.05;1.00;;;;;;;10.11;73.83;100393.88;5083849;28;20039;-79
2021/09/28 04:35:56;;;;;;;5.78;1.23;;;;;;;10.12;73.89;100403.75;5085659;28;20058;-79
2021/09/28 04:38:23;;;;;;;5.65;1.20;;;;;;;10.12;73.86;100392.69;5085423;28;20047;-79
2021/09/28 04:40:49;;;;;;;13.13;1.98;;;;;;;10.12;73.94;100392.69;5084645;28;20047;-79
2021/09/28 04:43:16;;;;;;;13.07;2.83;;;;;;;10.13;73.71;100406.22;5085390;28;20385;-79
2021/09/28 04:45:45;;;;;;;11.95;1.10;;;;;;;10.13;73.79;100397.91;5083994;28;20411;-79
2021/09/28 04:48:12;;;;;;;8.98;1.73;;;;;;;10.14;73.70;100396.75;5085248;28;20040;-78
2021/09/28 04:50:39;;;;;;;5.85;1.25;;;;;;;10.12;73.83;100399.06;5085641;28;20441;-79
2021/09/28 04:53:06;;;;;;;4.18;1.17;;;;;;;10.13;73.79;100397.91;5083590;28;20040;-79
2021/09/28 04:55:33;;;;;;;4.85;0.82;;;;;;;10.13;73.85;100394.34;5083555;28;20032;-79
2021/09/28 04:57:59;;;;;;;10.23;1.30;;;;;;;10.13;74.01;100395.16;5085678;28;20056;-79
2021/09/28 05:00:26;;;;;;;7.25;1.15;;;;;;;10.15;74.02;100398.38;5084451;28;20499;-79
2021/09/28 05:02:53;;;;;;;8.88;1.50;;;;;;;10.15;74.08;100397.56;5085789;28;20032;-79
2021/09/28 05:05:20;;;;;;;6.43;1.02;;;;;;;10.16;74.11;100394.47;5086024;28;20089;-79
2021/09/28 05:07:47;;;;;;;5.30;0.90;;;;;;;10.17;74.17;100393.28;5084212;28;20048;-79
2021/09/28 05:10:13;;;;;;;6.93;1.05;;;;;;;10.21;74.19;100399.75;5086184;28;20043;-79
2021/09/28 05:12:40;;;;;;;10.32;2.17;;;;;;;10.22;74.29;100398.56;5083527;28;20160;-79
2021/09/28 05:15:07;;;;;;;8.50;1.17;;;;;;;10.24;74.27;100396.28;5084034;28;20476;-80
2021/09/28 05:17:35;;;;;;;5.65;1.25;;;;;;;10.28;74.39;100397.16;5084463;28;20076;-79
2021/09/28 05:20:04;;;;;;;10.30;1.70;;;;;;;10.29;74.31;100400.75;5083913;28;20044;-79
2021/09/28 05:22:31;;;;;;;8.75;1.48;;;;;;;10.33;74.34;100393.34;5093171;28;20044;-79
2021/09/28 05:24:58;;;;;;;6.80;0.98;;;;;;;10.34;74.38;100394.97;5083315;28;20043;-79
2021/09/28 05:27:24;;;;;;;10.82;1.13;;;;;;;10.36;74.43;100387.09;5084713;28;20044;-79
2021/09/28 05:29:51;;;;;;;7.60;1.13;;;;;;;10.37;74.65;100389.53;5086323;28;20040;-79
2021/09/28 05:32:18;;;;;;;8.95;1.38;;;;;;;10.39;74.70;100392.75;5084140;28;20053;-79
2021/09/28 05:34:44;;;;;;;5.38;0.98;;;;;;;10.43;74.69;100380.97;5085297;28;20046;-79
2021/09/28 05:37:11;;;;;;;6.03;1.17;;;;;;;10.45;74.71;100384.19;5084416;28;20040;-79
2021/09/28 05:39:38;;;;;;;7.68;1.83;;;;;;;10.48;74.58;100372.41;5084270;28;20036;-79
2021/09/28 05:42:05;;;;;;;7.47;1.90;;;;;;;10.50;74.75;100367.31;5082015;28;20046;-79
2021/09/28 05:44:32;;;;;;;7.93;1.90;;;;;;;10.51;74.80;100380.00;5084718;28;20043;-79
2021/09/28 05:46:59;;;;;;;4.35;1.27;;;;;;;10.53;74.63;100377.69;5082162;28;20101;-79
2021/09/28 05:49:26;;;;;;;10.65;1.30;;;;;;;10.55;74.66;100372.59;5082089;28;20377;-79
2021/09/28 05:51:55;;;;;;;9.40;1.10;;;;;;;10.58;74.74;100371.91;5084381;28;20044;-79
2021/09/28 05:54:23;;;;;;;6.72;1.08;;;;;;;10.59;74.69;100373.53;5082833;28;20099;-79
2021/09/28 05:56:51;;;;;;;9.18;1.40;;;;;;;10.61;74.54;100376.72;5083943;28;20075;-79
2021/09/28 05:59:18;;;;;;;10.52;1.30;;;;;;;10.62;74.26;100358.94;5084905;28;20115;-79
2021/09/28 06:01:48;;;;;;;5.78;1.23;;;;;;;10.64;74.63;100364.94;5084837;28;20040;-79
2021/09/28 06:04:19;;;;;;;4.70;1.67;;;;;;;10.65;74.49;100361.81;5082852;28;20198;-79
2021/09/28 06:06:45;;;;;;;5.60;0.95;;;;;;;10.67;74.69;100347.63;5084642;28;20483;-79
2021/09/28 06:09:12;;;;;;;7.97;1.02;;;;;;;10.67;74.49;100347.63;5083372;28;20126;-79
2021/09/28 06:11:40;;;;;;;8.18;1.80;;;;;;;10.69;74.53;100350.84;5083610;28;20062;-79
2021/09/28 06:14:08;;;;;;;6.30;2.47;;;;;;;10.70;74.28;100346.91;5084965;28;20033;-79
2021/09/28 06:16:34;;;;;;;7.50;1.17;;;;;;;10.71;74.46;100340.22;5084511;28;20048;-79
2021/09/28 06:19:03;;;;;;;9.15;1.35;;;;;;;10.71;74.67;100341.03;5083542;28;20050;-79
2021/09/28 06:21:30;;;;;;;5.30;0.98;;;;;;;10.72;74.65;100344.59;5084413;28;20036;-79
2021/09/28 06:23:57;;;;;;;5.70;0.85;;;;;;;10.73;74.52;100338.69;5084139;28;20063;-79
2021/09/28 06:26:24;;;;;;;15.02;2.60;;;;;;;10.73;74.78;100346.19;5083948;28;20040;-79
2021/09/28 06:28:50;;;;;;;3.78;1.17;;;;;;;10.72;74.92;100348.16;5084724;28;20484;-79
2021/09/28 06:31:17;;;;;;;4.22;1.13;;;;;;;10.74;74.77;100347.81;5081582;28;20181;-78
2021/09/28 06:33:44;;;;;;;8.45;1.23;;;;;;;10.77;75.08;100341.56;5083661;28;20036;-79
2021/09/28 06:36:10;;;;;;;5.72;1.48;;;;;;;10.78;74.84;100337.63;5083493;28;20052;-79
2021/09/28 06:38:37;;;;;;;7.47;1.10;;;;;;;10.79;74.90;100339.25;5083508;28;20052;-79
2021/09/28 06:41:04;;;;;;;5.60;1.10;;;;;;;10.80;74.79;100341.63;5084526;28;20040;-79
2021/09/28 06:43:30;;;;;;;5.55;1.60;;;;;;;10.81;74.84;100346.03;5083729;28;20472;-79
2021/09/28 06:45:59;;;;;;;7.63;1.25;;;;;;;10.83;74.58;100346.47;5084654;28;20040;-79
2021/09/28 06:48:26;;;;;;;5.88;1.10;;;;;;;10.84;74.88;100353.63;5084544;28;20060;-79
2021/09/28 06:50:52;;;;;;;4.82;0.88;;;;;;;10.85;74.77;100337.81;5085554;28;20040;-79
2021/09/28 06:53:19;;;;;;;6.22;1.10;;;;;;;10.86;74.87;100344.94;5086123;28;20036;-79
2021/09/28 06:55:46;;;;;;;5.38;1.23;;;;;;;10.87;74.80;100341.03;5086729;28;20039;-79
2021/09/28 06:58:13;;;;;;;9.43;1.20;;;;;;;10.90;74.93;100348.63;5086504;28;20492;-79
2021/09/28 07:00:39;;;;;;;9.55;1.77;;;;;;;10.91;74.99;100339.94;5086181;28;20683;-79
2021/09/28 07:03:07;;;;;;;5.63;1.30;;;;;;;10.92;74.78;100346.31;5083927;28;20032;-79
2021/09/28 07:05:34;;;;;;;7.70;1.42;;;;;;;10.94;74.86;100353.09;5084193;28;20052;-78
2021/09/28 07:08:01;;;;;;;9.13;2.65;;;;;;;10.97;75.21;100359.88;5090172;28;20115;-78
2021/09/28 07:10:27;;;;;;;15.43;1.88;;;;;;;10.97;74.88;100346.84;5089806;28;20547;-78
2021/09/28 07:12:55;;;;;;;16.98;2.72;;;;;;;11.00;74.63;100353.63;5087069;28;20052;-79
2021/09/28 07:15:21;;;;;;;10.75;1.20;;;;;;;11.00;74.75;100345.31;5088423;28;20043;-78
2021/09/28 07:17:48;;;;;;;8.70;2.25;;;;;;;11.02;74.66;100338.25;5089408;28;20058;-78
2021/09/28 07:20:15;;;;;;;11.48;2.03;;;;;;;11.05;74.65;100347.81;5085124;28;20119;-78
2021/09/28 07:22:42;;;;;;;6.53;1.27;;;;;;;11.06;74.63;100341.13;5088734;28;20040;-78
2021/09/28 07:25:09;;;;;;;6.28;1.35;;;;;;;11.05;74.37;100336.75;5087494;28;20472;-78
2021/09/28 07:27:51;;;;;;;4.93;0.83;;;;;;;11.07;74.54;100339.16;5087894;28;20426;-79
2021/09/28 07:30:17;;;;;;;4.22;1.05;;;;;;;11.09;74.38;100348.72;5086462;28;20373;-78
2021/09/28 07:32:44;;;;;;;7.50;1.10;;;;;;;11.11;74.34;100338.09;5088022;28;20048;-78
2021/09/28 07:35:11;;;;;;;7.20;1.00;;;;;;;11.13;74.15;100332.97;5088851;28;20040;-79
2021/09/28 07:37:38;;;;;;;5.60;1.45;;;;;;;11.16;74.08;100343.34;5088525;28;20043;-78
2021/09/28 07:40:05;;;;;;;3.35;1.30;;;;;;;11.17;73.88;100346.94;5089041;28;20131;-78
2021/09/28 07:42:32;;;;;;;5.45;1.15;;;;;;;11.18;73.86;100341.00;5089457;28;20044;-79
2021/09/28 07:45:00;;;;;;;9.52;1.40;;;;;;;11.20;73.89;100333.13;5087547;28;20111;-79
2021/09/28 07:47:27;;;;;;;7.43;1.13;;;;;;;11.23;73.94;100331.63;5087295;28;20051;-79
2021/09/28 07:49:54;;;;;;;4.40;1.45;;;;;;;11.26;73.67;100333.69;5087310;28;20400;-78
2021/09/28 07:52:25;;;;;;;9.68;1.40;;;;;;;11.29;73.65;100333.75;5085969;28;20047;-78
2021/09/28 07:54:52;;;;;;;8.98;1.10;;;;;;;11.33;73.53;100331.88;5080578;28;21195;-78
2021/09/28 07:57:19;;;;;;;5.80;1.23;;;;;;;11.38;73.23;100334.38;5090509;28;20044;-78
2021/09/28 07:59:46;;;;;;;4.05;0.60;;;;;;;11.42;73.41;100329.72;5088206;28;20039;-78
2021/09/28 08:02:12;;;;;;;7.93;1.35;;;;;;;11.44;73.22;100332.94;5088164;28;20786;-80
2021/09/28 08:04:40;;;;;;;8.52;1.00;;;;;;;11.48;73.12;100344.91;5087269;28;20110;-80
2021/09/28 08:07:07;;;;;;;6.63;1.00;;;;;;;11.54;73.05;100343.44;5084773;28;20129;-80
2021/09/28 08:09:34;;;;;;;3.72;0.68;;;;;;;11.59;72.65;100334.88;5087312;28;20032;-79
2021/09/28 08:12:01;;;;;;;5.47;1.00;;;;;;;11.63;72.70;100341.28;5087502;28;20048;-80
2021/09/28 08:14:28;;;;;;;7.82;1.52;;;;;;;11.68;72.54;100336.63;5086238;28;20391;-79
2021/09/28 08:16:55;;;;;;;6.15;1.33;;;;;;;11.76;72.34;100341.19;5085298;28;20097;-79
2021/09/28 08:19:22;;;;;;;10.80;2.67;;;;;;;11.84;72.28;100334.63;5086550;28;20097;-79
2021/09/28 08:21:49;;;;;;;5.80;1.30;;;;;;;11.87;71.99;100343.03;5069368;28;20040;-79
2021/09/28 08:24:15;;;;;;;3.05;0.90;;;;;;;11.92;72.02;100339.16;5086127;28;20044;-80
2021/09/28 08:29:32;;;;;;;3.25;0.80;;;;;;;11.96;71.66;100315.09;5086391;28;20129;-78
2021/09/28 08:31:59;;;;;;;4.20;0.70;;;;;;;11.99;71.37;100325.47;5086316;28;20123;-80
2021/09/28 08:34:25;;;;;;;4.72;1.67;;;;;;;12.02;71.31;100335.84;5085551;28;20052;-79
2021/09/28 08:36:53;;;;;;;2.20;0.60;;;;;;;12.04;70.94;100336.25;5088701;28;20055;-78
2021/09/28 08:39:20;;;;;;;2.90;1.05;;;;;;;12.08;70.93;100339.91;5085654;28;20063;-79
2021/09/28 08:41:51;;;;;;;2.05;0.90;;;;;;;12.11;70.89;100336.41;5085872;28;20040;-82
2021/09/28 08:44:18;;;;;;;6.22;2.50;;;;;;;12.10;70.68;100332.00;5085638;28;20051;-78
2021/09/28 08:46:47;;;;;;;3.50;0.63;;;;;;;12.04;70.27;100334.31;5088411;28;20040;-79
2021/09/28 08:49:16;;;;;;;6.53;0.95;;;;;;;12.03;70.33;100332.69;5086453;28;20048;-80
2021/09/28 08:51:43;;;;;;;3.80;1.10;;;;;;;12.06;70.42;100325.59;5084369;28;20051;-79
2021/09/28 08:54:10;;;;;;;7.18;0.90;;;;;;;12.13;70.45;100320.19;5085992;28;20125;-78
2021/09/28 08:56:37;;;;;;;6.15;0.98;;;;;;;12.23;70.41;100319.63;5074609;28;20040;-79
2021/09/28 08:59:07;;;;;;;3.47;1.05;;;;;;;12.36;70.32;100312.72;5086780;28;20081;-79
2021/09/28 09:01:35;;;;;;;3.92;0.65;;;;;;;12.51;71.01;100328.47;5085385;28;20048;-79
2021/09/28 09:04:17;;;;;;;7.43;0.80;;;;;;;12.66;70.56;100330.34;5085094;28;20097;-79
2021/09/28 09:06:45;;;;;;;2.25;0.77;;;;;;;12.70;70.99;100322.91;5100210;28;20150;-79
2021/09/28 09:09:13;;;;;;;3.10;0.65;;;;;;;12.70;70.01;100331.22;5085997;28;20075;-79
2021/09/28 09:11:44;;;;;;;2.75;0.73;;;;;;;12.71;69.42;100330.03;5086479;28;20040;-79
2021/09/28 09:14:12;;;;;;;4.20;0.75;;;;;;;12.75;69.01;100330.09;5085835;28;20281;-79
2021/09/28 09:16:41;;;;;;;3.72;0.50;;;;;;;12.80;68.80;100315.91;5067807;28;20040;-79
2021/09/28 09:19:14;;;;;;;5.18;0.70;;;;;;;12.80;67.75;100321.47;5083571;28;20059;-81
2021/09/28 09:21:48;;;;;;;3.25;0.88;;;;;;;12.88;68.01;100344.63;5086736;28;20182;-79
2021/09/28 09:24:41;;;;;;;5.28;0.70;;;;;;;12.89;67.10;100341.47;5083190;28;20063;-79
2021/09/28 09:27:12;;;;;;;2.45;0.68;;;;;;;13.07;67.88;100327.91;5084977;28;20052;-80
2021/09/28 09:29:44;;;;;;;1.85;0.57;;;;;;;13.10;67.18;100335.50;5084617;28;20043;-79
2021/09/28 09:32:11;;;;;;;1.65;0.50;;;;;;;13.10;67.00;100332.72;5084711;28;20049;-80
2021/09/28 09:34:38;;;;;;;0.75;0.40;;;;;;;13.12;66.40;100327.59;5084282;28;20047;-80
2021/09/28 09:37:10;;;;;;;6.70;0.63;;;;;;;13.19;66.55;100322.13;5086104;28;20048;-79
2021/09/28 09:39:53;;;;;;;2.83;1.02;;;;;;;13.26;66.06;100327.84;5084486;28;20040;-79
2021/09/28 09:42:21;;;;;;;4.65;0.65;;;;;;;13.22;66.25;100321.41;5067033;28;20492;-80
2021/09/28 09:44:47;;;;;;;4.25;0.77;;;;;;;13.28;66.48;100317.13;5086060;28;20040;-79
2021/09/28 09:47:25;;;;;;;1.77;0.88;;;;;;;13.38;65.80;100335.94;5085587;28;20514;-79
2021/09/28 09:50:10;;;;;;;2.63;0.60;;;;;;;13.59;66.25;100319.59;5096265;28;20039;-79
2021/09/28 09:52:36;;;;;;;6.78;1.95;;;;;;;14.09;66.51;100325.81;5083936;28;20111;-80
2021/09/28 09:55:24;;;;;;;4.32;0.85;;;;;;;14.38;64.32;100316.63;5084386;28;20075;-79
2021/09/28 09:57:52;;;;;;;5.68;0.70;;;;;;;14.41;65.11;100318.66;5083865;28;20051;-79
2021/09/28 10:00:21;;;;;;;2.92;0.35;;;;;;;14.52;64.29;100314.00;5083870;28;20048;-79
2021/09/28 10:02:48;;;;;;;1.48;0.30;;;;;;;15.02;64.04;100301.34;5083912;28;20044;-79
2021/09/28 10:05:16;;;;;;;1.75;0.50;;;;;;;15.64;63.14;100300.22;5094964;28;20211;-79
2021/09/28 10:07:43;;;;;;;1.25;0.30;;;;;;;16.33;61.92;100298.13;5084700;28;20044;-79
2021/09/28 10:10:17;;;;;;;2.15;0.40;;;;;;;16.88;58.52;100297.84;5083640;28;20040;-80
2021/09/28 10:12:45;;;;;;;1.88;0.50;;;;;;;17.29;59.28;100293.44;5085521;28;20044;-80
2021/09/28 10:15:15;;;;;;;4.30;0.52;;;;;;;17.79;57.88;100284.97;5085864;28;20052;-79
2021/09/28 10:17:43;;;;;;;1.92;0.45;;;;;;;17.71;56.94;100286.22;5098643;28;20039;-83
2021/09/28 10:20:22;;;;;;;2.35;0.47;;;;;;;17.64;55.64;100271.03;5085548;28;20048;-79
2021/09/28 10:23:24;;;;;;;1.70;0.40;;;;;;;17.47;53.45;100271.81;5084347;28;20066;-80
2021/09/28 10:25:51;;;;;;;2.30;0.20;;;;;;;17.02;55.55;100270.69;5034692;28;20064;-79
2021/09/28 10:28:18;;;;;;;6.55;0.60;;;;;;;16.60;55.44;100284.63;5088802;28;20047;-79
2021/09/28 10:30:46;;;;;;;0.82;0.38;;;;;;;16.21;55.41;100290.09;5088731;28;20097;-79
2021/09/28 10:33:22;;;;;;;3.30;0.30;;;;;;;15.65;54.33;100301.00;5087856;28;20957;-79
2021/09/28 10:36:13;;;;;;;1.27;0.30;;;;;;;15.31;56.30;100282.81;5085730;28;20054;-79
2021/09/28 10:38:47;;;;;;;1.65;1.40;;;;;;;14.98;56.53;100279.03;5088573;28;20101;-79
2021/09/28 10:41:48;;;;;;;1.65;0.20;;;;;;;14.76;56.47;100279.22;5089262;28;20067;-79
2021/09/28 10:44:29;;;;;;;2.08;0.20;;;;;;;14.54;57.37;100270.66;5075690;28;20054;-79
2021/09/28 10:46:56;;;;;;;3.92;0.47;;;;;;;14.45;57.64;100266.59;5086234;28;20047;-79
2021/09/28 10:49:36;;;;;;;1.75;0.47;;;;;;;14.59;57.73;100259.16;5089224;28;20102;-79
2021/09/28 10:52:32;;;;;;;5.93;1.45;;;;;;;14.78;56.94;100255.34;5087499;28;20118;-79
2021/09/28 10:55:06;;;;;;;3.80;0.30;;;;;;;14.73;57.34;100261.28;5065659;28;20051;-79
2021/09/28 10:57:56;;;;;;;1.23;0.30;;;;;;;14.55;57.40;100271.47;5087484;28;20450;-79
2021/09/28 11:00:26;;;;;;;1.13;0.20;;;;;;;14.44;58.15;100267.75;5085501;28;20123;-79
2021/09/28 11:02:58;;;;;;;1.55;0.30;;;;;;;14.38;58.54;100275.66;5085704;28;20131;-79
2021/09/28 11:05:28;;;;;;;;;;;;;;;14.26;58.68;100272.31;5079081;28;20117;-79
2021/09/28 11:07:55;;;;;;;2.40;0.35;;;;;;;14.18;59.14;100279.00;5087505;28;20006;-79
2021/09/28 11:10:23;;;;;;;1.58;0.20;;;;;;;14.20;59.32;100276.63;5087483;28;20038;-79
2021/09/28 11:12:49;;;;;;;0.85;0.30;;;;;;;14.16;59.56;100271.03;5088786;28;20151;-79
2021/09/28 11:15:21;;;;;;;4.82;0.75;;;;;;;14.13;59.08;100266.22;5088054;28;20071;-79
2021/09/28 11:17:49;;;;;;;2.85;0.57;;;;;;;14.14;59.17;100272.59;5089335;28;20040;-79
2021/09/28 11:20:27;;;;;;;2.50;0.68;;;;;;;14.16;58.70;100265.47;5089602;28;20925;-79
2021/09/28 11:23:07;;;;;;;2.85;0.38;;;;;;;14.23;59.39;100264.72;5080664;28;20051;-79
2021/09/28 11:25:37;;;;;;;2.97;0.30;;;;;;;14.31;59.22;100255.28;5087914;28;20040;-78
2021/09/28 11:28:10;;;;;;;3.15;0.30;;;;;;;14.34;59.30;100248.97;5087401;28;20040;-79
2021/09/28 11:30:40;;;;;;;1.05;0.35;;;;;;;14.40;59.56;100258.59;5087295;28;20048;-79
2021/09/28 11:33:09;;;;;;;8.40;0.65;;;;;;;14.51;59.57;100242.75;5087339;28;20130;-79